createdAt,value
2022-10-02T00:01:15.311Z,99004.59
2022-10-02T00:03:43.796Z,98996.56
2022-10-02T00:06:14.621Z,99014.50
2022-10-02T00:08:44.047Z,99005.56
2022-10-02T00:11:17.880Z,99017.50
2022-10-02T00:13:49.797Z,99014.91
2022-10-02T00:16:25.586Z,99016.66
2022-10-02T00:18:53.845Z,99023.69
2022-10-02T00:21:33.576Z,99027.47
2022-10-02T00:24:03.435Z,99021.31
2022-10-02T00:26:30.282Z,99028.34
2022-10-02T00:29:15.986Z,99026.59
2022-10-02T00:31:45.448Z,99033.72
2022-10-02T00:34:28.161Z,99033.63
2022-10-02T00:37:04.382Z,99033.72
2022-10-02T00:39:30.771Z,99046.25
2022-10-02T00:42:16.202Z,99046.13
2022-10-02T00:44:54.824Z,99048.88
2022-10-02T00:47:38.658Z,99052.25
2022-10-02T00:50:18.104Z,99060.25
2022-10-02T00:53:02.626Z,99056.78
2022-10-02T00:55:36.965Z,99054.25
2022-10-02T00:58:03.579Z,99048.81
2022-10-02T01:00:30.110Z,99058.84
2022-10-02T01:02:56.635Z,99060.72
2022-10-02T01:05:23.147Z,99063.31
2022-10-02T01:07:51.028Z,99058.97
2022-10-02T01:10:17.774Z,99065.06
2022-10-02T01:12:45.001Z,99064.13
2022-10-02T01:15:15.512Z,99069.56
2022-10-02T01:17:42.969Z,99073.28
2022-10-02T01:20:17.705Z,99079.59
2022-10-02T01:22:50.485Z,99086.50
2022-10-02T01:25:17.023Z,99086.41
2022-10-02T01:27:43.644Z,99085.69
2022-10-02T01:30:13.657Z,99096.22
2022-10-02T01:32:42.759Z,99090.84
2022-10-02T01:35:09.556Z,99098.31
2022-10-02T01:37:37.999Z,99107.09
2022-10-02T01:40:10.193Z,99094.19
2022-10-02T01:42:37.557Z,99099.56
2022-10-02T01:45:05.901Z,99099.75
2022-10-02T01:47:51.305Z,99114.53
2022-10-02T01:50:23.998Z,99115.16
2022-10-02T01:53:03.867Z,99104.88
2022-10-02T01:55:52.535Z,99111.03
2022-10-02T01:58:30.068Z,99113.91
2022-10-02T02:00:56.461Z,99119.66
2022-10-02T02:03:28.882Z,99122.97
2022-10-02T02:06:13.972Z,99123.84
2022-10-02T02:08:46.971Z,99123.75
2022-10-02T02:11:18.196Z,99129.22
2022-10-02T02:13:46.662Z,99126.44
2022-10-02T02:16:22.096Z,99133.63
2022-10-02T02:19:00.388Z,99132.78
2022-10-02T02:21:50.145Z,99138.28
2022-10-02T02:24:39.789Z,99138.94
2022-10-02T02:27:07.254Z,99144.94
2022-10-02T02:29:35.165Z,99137.28
2022-10-02T02:32:03.851Z,99141.69
2022-10-02T02:34:35.334Z,99138.59
2022-10-02T02:37:07.913Z,99139.50
2022-10-02T02:39:37.523Z,99136.22
2022-10-02T02:42:07.360Z,99140.16
2022-10-02T02:44:38.622Z,99134.44
2022-10-02T02:47:11.302Z,99148.44
2022-10-02T02:49:52.807Z,99137.75
2022-10-02T02:52:21.776Z,99138.16
2022-10-02T02:54:55.046Z,99142.81
2022-10-02T02:57:25.657Z,99138.06
2022-10-02T02:59:52.748Z,99142.09
2022-10-02T03:02:19.272Z,99144.00
2022-10-02T03:04:45.708Z,99150.72
2022-10-02T03:07:14.929Z,99147.31
2022-10-02T03:09:42.557Z,99147.00
2022-10-02T03:12:35.291Z,99148.16
2022-10-02T03:15:09.446Z,99150.00
2022-10-02T03:17:53.949Z,99146.72
2022-10-02T03:20:21.239Z,99153.53
2022-10-02T03:22:56.825Z,99161.38
2022-10-02T03:25:23.281Z,99163.03
2022-10-02T03:27:57.456Z,99154.75
2022-10-02T03:30:26.687Z,99166.28
2022-10-02T03:32:53.883Z,99160.63
2022-10-02T03:35:20.943Z,99157.72
2022-10-02T03:37:49.748Z,99160.31
2022-10-02T03:40:16.437Z,99156.94
2022-10-02T03:42:44.221Z,99160.09
2022-10-02T03:45:46.101Z,99155.66
2022-10-02T03:48:20.412Z,99159.25
2022-10-02T03:50:46.871Z,99158.44
2022-10-02T03:53:14.476Z,99162.22
2022-10-02T03:55:42.978Z,99158.59
2022-10-02T03:58:14.533Z,99162.78
2022-10-02T04:00:52.108Z,99164.03
2022-10-02T04:03:22.768Z,99164.13
2022-10-02T04:05:55.399Z,99167.53
2022-10-02T04:08:36.816Z,99161.75
2022-10-02T04:11:06.415Z,99169.72
2022-10-02T04:13:32.753Z,99171.63
2022-10-02T04:15:59.381Z,99177.25
2022-10-02T04:18:30.198Z,99172.03
2022-10-02T04:21:00.424Z,99173.56
2022-10-02T04:23:30.070Z,99174.00
2022-10-02T04:26:00.620Z,99173.28
2022-10-02T04:28:32.266Z,99171.19
2022-10-02T04:31:01.408Z,99178.41
2022-10-02T04:33:27.768Z,99178.88
2022-10-02T04:35:57.377Z,99182.44
2022-10-02T04:38:32.849Z,99182.44
2022-10-02T04:41:12.918Z,99182.28
2022-10-02T04:43:39.251Z,99183.16
2022-10-02T04:46:14.744Z,99179.66
2022-10-02T04:49:16.704Z,99184.56
2022-10-02T04:51:43.091Z,99183.44
2022-10-02T04:54:28.211Z,99184.19
2022-10-02T04:57:09.771Z,99181.50
2022-10-02T04:59:42.257Z,99180.59
2022-10-02T05:02:32.425Z,99179.81
2022-10-02T05:05:01.476Z,99183.66
2022-10-02T05:07:30.884Z,99181.28
2022-10-02T05:10:16.213Z,99176.72
2022-10-02T05:13:04.462Z,99183.88
2022-10-02T05:15:52.482Z,99177.56
2022-10-02T05:18:33.899Z,99183.31
2022-10-02T05:21:00.912Z,99177.81
2022-10-02T05:23:30.275Z,99180.50
2022-10-02T05:26:03.556Z,99183.97
2022-10-02T05:28:29.936Z,99180.22
2022-10-02T05:31:13.858Z,99191.59
2022-10-02T05:33:48.481Z,99196.31
2022-10-02T05:36:34.269Z,99189.53
2022-10-02T05:39:00.847Z,99193.03
2022-10-02T05:41:33.369Z,99192.56
2022-10-02T05:43:59.768Z,99195.13
2022-10-02T05:46:30.242Z,99197.28
2022-10-02T05:49:13.910Z,99195.19
2022-10-02T05:51:43.931Z,99196.63
2022-10-02T05:54:22.544Z,99200.97
2022-10-02T05:56:54.632Z,99205.16
2022-10-02T05:59:39.160Z,99203.97
2022-10-02T06:02:20.839Z,99208.22
2022-10-02T06:05:01.335Z,99204.03
2022-10-02T06:07:38.124Z,99202.78
2022-10-02T06:10:12.117Z,99199.47
2022-10-02T06:12:40.972Z,99196.69
2022-10-02T06:15:37.466Z,99197.56
2022-10-02T06:18:16.822Z,99196.31
2022-10-02T06:21:14.412Z,99203.19
2022-10-02T06:24:00.030Z,99195.03
2022-10-02T06:30:28.191Z,99200.41
2022-10-02T06:33:16.103Z,99200.88
2022-10-02T06:35:49.535Z,99208.81
2022-10-02T06:38:42.343Z,99215.84
2022-10-02T06:41:28.209Z,99213.69
2022-10-02T06:44:25.418Z,99208.94
2022-10-02T06:49:42.634Z,99205.88
2022-10-02T06:52:44.667Z,99209.09
2022-10-02T06:55:11.095Z,99216.28
2022-10-02T06:57:56.130Z,99208.88
2022-10-02T07:00:24.798Z,99206.69
2022-10-02T07:03:17.813Z,99206.22
2022-10-02T07:05:59.394Z,99199.53
2022-10-02T07:11:48.637Z,99202.88
2022-10-02T07:14:33.903Z,99198.09
2022-10-02T07:17:22.390Z,99205.84
2022-10-02T07:20:03.733Z,99212.44
2022-10-02T07:22:52.082Z,99199.50
2022-10-02T07:25:44.970Z,99205.47
2022-10-02T07:28:37.927Z,99198.50
2022-10-02T07:31:13.412Z,99203.53
2022-10-02T07:34:10.074Z,99209.63
2022-10-02T07:37:26.274Z,99203.03
2022-10-02T07:39:58.924Z,99203.88
2022-10-02T07:42:38.595Z,99200.59
2022-10-02T07:45:19.805Z,99200.38
2022-10-02T07:48:12.112Z,99202.31
2022-10-02T07:50:58.162Z,99204.81
2022-10-02T07:53:28.409Z,99197.72
2022-10-02T07:55:55.368Z,99196.50
2022-10-02T07:58:46.695Z,99197.69
2022-10-02T08:01:16.638Z,99201.19
2022-10-02T08:04:03.256Z,99200.63
2022-10-02T08:06:33.382Z,99201.91
2022-10-02T08:09:06.072Z,99193.81
2022-10-02T08:11:40.691Z,99203.81
2022-10-02T08:14:12.496Z,99211.38
2022-10-02T08:16:42.449Z,99205.78
2022-10-02T08:19:13.801Z,99207.03
2022-10-02T08:21:42.911Z,99204.06
2022-10-02T08:24:12.303Z,99196.63
2022-10-02T08:26:50.895Z,99197.88
2022-10-02T08:29:40.246Z,99194.41
2022-10-02T08:32:12.097Z,99196.50
2022-10-02T08:34:39.211Z,99191.72
2022-10-02T08:37:05.526Z,99179.56
2022-10-02T08:39:53.626Z,99185.28
2022-10-02T08:42:38.760Z,99189.53
2022-10-02T08:45:08.141Z,99178.97
2022-10-02T08:47:38.666Z,99180.31
2022-10-02T08:50:33.885Z,99184.91
2022-10-02T08:53:00.346Z,99188.88
2022-10-02T08:55:43.625Z,99199.19
2022-10-02T08:58:34.276Z,99182.88
2022-10-02T09:01:38.028Z,99182.22
2022-10-02T09:04:13.417Z,99193.16
2022-10-02T09:07:04.316Z,99192.00
2022-10-02T09:09:52.850Z,99192.44
2022-10-02T09:12:25.772Z,99184.63
2022-10-02T09:15:07.392Z,99186.84
2022-10-02T09:17:33.716Z,99186.97
2022-10-02T09:20:06.159Z,99185.78
2022-10-02T09:22:35.607Z,99189.59
2022-10-02T09:25:07.989Z,99186.66
2022-10-02T09:27:46.683Z,99193.13
2022-10-02T09:30:19.756Z,99173.88
2022-10-02T09:33:04.718Z,99170.16
2022-10-02T09:35:34.081Z,99176.41
2022-10-02T09:38:14.192Z,99160.72
2022-10-02T09:40:46.601Z,99168.53
2022-10-02T09:43:28.300Z,99161.25
2022-10-02T09:45:57.767Z,99162.69
2022-10-02T09:48:33.076Z,99161.41
2022-10-02T09:51:18.484Z,99155.25
2022-10-02T09:53:47.878Z,99148.75
2022-10-02T09:56:14.298Z,99138.47
2022-10-02T09:59:09.084Z,99141.81
2022-10-02T10:01:49.840Z,99140.44
2022-10-02T10:04:22.369Z,99146.16
2022-10-02T10:06:54.984Z,99143.97
2022-10-02T10:09:35.110Z,99138.44
2022-10-02T10:12:05.436Z,99144.94
2022-10-02T10:14:33.823Z,99145.03
2022-10-02T10:17:19.366Z,99138.81
2022-10-02T10:19:47.132Z,99139.16
2022-10-02T10:22:31.628Z,99138.59
2022-10-02T10:25:12.898Z,99124.84
2022-10-02T10:27:49.124Z,99130.91
2022-10-02T10:30:38.231Z,99124.94
2022-10-02T10:33:24.483Z,99124.47
2022-10-02T10:35:52.484Z,99134.06
2022-10-02T10:38:34.907Z,99126.78
2022-10-02T10:41:09.472Z,99128.03
2022-10-02T10:43:37.488Z,99132.19
2022-10-02T10:46:21.108Z,99125.16
2022-10-02T10:49:06.235Z,99127.56
2022-10-02T10:51:35.535Z,99125.75
2022-10-02T10:54:11.210Z,99132.59
2022-10-02T10:56:37.724Z,99125.72
2022-10-02T10:59:25.318Z,99136.66
2022-10-02T11:01:54.922Z,99132.66
2022-10-02T11:04:33.373Z,99133.13
2022-10-02T11:07:25.104Z,99126.84
2022-10-02T11:10:09.593Z,99134.53
2022-10-02T11:12:54.426Z,99128.59
2022-10-02T11:15:20.868Z,99122.31
2022-10-02T11:17:48.358Z,99131.84
2022-10-02T11:20:31.814Z,99124.25
2022-10-02T11:23:04.212Z,99124.47
2022-10-02T11:25:33.715Z,99117.00
2022-10-02T11:28:00.117Z,99122.88
2022-10-02T11:30:39.467Z,99119.28
2022-10-02T11:33:10.791Z,99120.03
2022-10-02T11:35:37.180Z,99112.03
2022-10-02T11:38:04.245Z,99105.41
2022-10-02T11:40:49.344Z,99110.03
2022-10-02T11:43:41.783Z,99103.06
2022-10-02T11:46:37.153Z,99106.47
2022-10-02T11:49:26.973Z,99113.00
2022-10-02T11:52:01.293Z,99107.34
2022-10-02T11:54:30.454Z,99115.41
2022-10-02T11:57:01.917Z,99109.06
2022-10-02T11:59:34.137Z,99103.63
2022-10-02T12:02:05.428Z,99106.47
2022-10-02T12:05:05.088Z,99115.13
2022-10-02T12:07:42.524Z,99101.50
2022-10-02T12:10:27.487Z,99119.00
2022-10-02T12:13:10.285Z,99103.06
2022-10-02T12:15:42.396Z,99108.22
2022-10-02T12:18:24.069Z,99110.13
2022-10-02T12:21:12.212Z,99108.22
2022-10-02T12:24:14.485Z,99111.31
2022-10-02T12:27:04.181Z,99101.38
2022-10-02T12:29:56.807Z,99103.44
2022-10-02T12:32:29.802Z,99099.84
2022-10-02T12:35:02.932Z,99098.50
2022-10-02T12:37:29.865Z,99093.53
2022-10-02T12:39:56.621Z,99087.22
2022-10-02T12:42:29.153Z,99092.88
2022-10-02T12:44:56.492Z,99094.91
2022-10-02T12:47:31.886Z,99087.66
2022-10-02T12:50:02.965Z,99087.53
2022-10-02T12:52:51.856Z,99089.69
2022-10-02T12:55:33.605Z,99092.19
2022-10-02T12:58:20.495Z,99083.41
2022-10-02T13:00:56.207Z,99087.84
2022-10-02T13:03:40.942Z,99082.97
2022-10-02T13:06:07.366Z,99076.44
2022-10-02T13:08:43.514Z,99076.88
2022-10-02T13:11:19.246Z,99070.94
2022-10-02T13:14:03.882Z,99075.38
2022-10-02T13:16:46.944Z,99069.22
2022-10-02T13:19:19.988Z,99064.72
2022-10-02T13:22:23.956Z,99065.00
2022-10-02T13:24:56.310Z,99063.59
2022-10-02T13:27:31.367Z,99062.38
2022-10-02T13:29:58.133Z,99078.63
2022-10-02T13:32:24.581Z,99066.72
2022-10-02T13:35:03.168Z,99075.31
2022-10-02T13:37:57.605Z,99062.19
2022-10-02T13:40:32.154Z,99055.50
2022-10-02T13:43:06.066Z,99061.69
2022-10-02T13:45:32.764Z,99062.13
2022-10-02T13:48:05.758Z,99051.63
2022-10-02T13:50:32.132Z,99058.34
2022-10-02T13:53:17.132Z,99073.81
2022-10-02T13:55:45.003Z,99066.00
2022-10-02T13:58:30.610Z,99056.09
2022-10-02T14:01:05.164Z,99060.63
2022-10-02T14:03:32.180Z,99056.31
2022-10-02T14:06:21.688Z,99058.41
2022-10-02T14:09:01.373Z,99060.91
2022-10-02T14:11:37.009Z,99048.34
2022-10-02T14:14:03.894Z,99060.38
2022-10-02T14:16:42.881Z,99069.19
2022-10-02T14:19:28.327Z,99070.94
2022-10-02T14:22:00.772Z,99081.44
2022-10-02T14:25:01.018Z,99075.91
2022-10-02T14:27:46.230Z,99079.84
2022-10-02T14:30:17.340Z,99074.19
2022-10-02T14:32:46.733Z,99080.66
2022-10-02T14:35:25.360Z,99091.75
2022-10-02T14:38:04.002Z,99095.50
2022-10-02T14:40:37.869Z,99101.28
2022-10-02T14:43:13.530Z,99104.31
2022-10-02T14:45:42.705Z,99101.41
2022-10-02T14:48:17.119Z,99089.06
2022-10-02T14:50:58.433Z,99096.59
2022-10-02T14:53:30.923Z,99091.19
2022-10-02T14:56:13.494Z,99084.16
2022-10-02T14:58:39.840Z,99093.78
2022-10-02T15:01:06.646Z,99083.81
2022-10-02T15:03:46.008Z,99088.72
2022-10-02T15:06:18.534Z,99087.13
2022-10-02T15:08:51.774Z,99089.13
2022-10-02T15:11:21.344Z,99093.22
2022-10-02T15:13:55.108Z,99102.00
2022-10-02T15:16:58.949Z,99099.09
2022-10-02T15:19:33.163Z,99106.31
2022-10-02T15:22:08.160Z,99103.63
2022-10-02T15:24:44.099Z,99112.09
2022-10-02T15:29:54.734Z,99113.03
2022-10-02T15:32:41.999Z,99123.44
2022-10-02T15:35:08.332Z,99126.31
2022-10-02T15:37:47.646Z,99117.13
2022-10-02T15:40:26.252Z,99120.25
2022-10-02T15:43:05.213Z,99123.06
2022-10-02T15:45:40.941Z,99123.63
2022-10-02T15:48:13.371Z,99128.28
2022-10-02T15:50:40.954Z,99124.53
2022-10-02T15:53:07.285Z,99129.75
2022-10-02T15:55:37.395Z,99126.28
2022-10-02T15:58:15.950Z,99137.84
2022-10-02T16:01:02.659Z,99125.81
2022-10-02T16:03:45.241Z,99145.88
2022-10-02T16:06:12.174Z,99149.75
2022-10-02T16:08:49.203Z,99150.25
2022-10-02T16:11:31.860Z,99146.78
2022-10-02T16:14:07.685Z,99155.25
2022-10-02T16:16:51.714Z,99160.28
2022-10-02T16:19:35.378Z,99158.84
2022-10-02T16:22:12.249Z,99166.00
2022-10-02T16:24:41.240Z,99162.31
2022-10-02T16:27:26.398Z,99161.44
2022-10-02T16:30:08.337Z,99167.13
2022-10-02T16:32:44.012Z,99160.59
2022-10-02T16:35:13.404Z,99162.31
2022-10-02T16:37:39.739Z,99172.06
2022-10-02T16:40:23.184Z,99173.13
2022-10-02T16:42:57.849Z,99171.47
2022-10-02T16:45:35.387Z,99160.97
2022-10-02T16:48:06.437Z,99181.22
2022-10-02T16:50:44.834Z,99182.44
2022-10-02T16:53:21.653Z,99184.28
2022-10-02T16:58:40.256Z,99191.00
2022-10-02T17:01:25.555Z,99189.34
2022-10-02T17:04:12.270Z,99191.75
2022-10-02T17:06:42.650Z,99209.94
2022-10-02T17:09:14.959Z,99207.94
2022-10-02T17:11:51.769Z,99213.13
2022-10-02T17:14:22.048Z,99217.50
2022-10-02T17:16:55.723Z,99227.41
2022-10-02T17:19:40.943Z,99226.44
2022-10-02T17:22:13.835Z,99234.28
2022-10-02T17:24:43.209Z,99235.97
2022-10-02T17:27:10.017Z,99241.53
2022-10-02T17:29:39.069Z,99248.09
2022-10-02T17:32:08.394Z,99240.78
2022-10-02T17:34:45.920Z,99249.56
2022-10-02T17:37:15.387Z,99250.09
2022-10-02T17:39:53.933Z,99256.06
2022-10-02T17:42:30.452Z,99255.53
2022-10-02T17:45:15.419Z,99246.84
2022-10-02T17:47:41.845Z,99257.50
2022-10-02T17:50:20.534Z,99262.44
2022-10-02T17:53:23.913Z,99268.88
2022-10-02T17:56:27.687Z,99270.09
2022-10-02T17:58:56.968Z,99276.13
2022-10-02T18:01:23.379Z,99281.84
2022-10-02T18:03:52.520Z,99279.31
2022-10-02T18:06:21.883Z,99285.84
2022-10-02T18:08:51.436Z,99287.47
2022-10-02T18:11:36.902Z,99284.78
2022-10-02T18:14:03.406Z,99287.47
2022-10-02T18:16:55.262Z,99294.06
2022-10-02T18:19:27.907Z,99303.38
2022-10-02T18:22:04.312Z,99304.41
2022-10-02T18:24:39.836Z,99305.06
2022-10-02T18:27:15.392Z,99312.50
2022-10-02T18:29:53.748Z,99318.03
2022-10-02T18:32:39.053Z,99311.00
2022-10-02T18:35:14.234Z,99315.84
2022-10-02T18:37:53.747Z,99322.09
2022-10-02T18:40:23.283Z,99327.56
2022-10-02T18:42:49.620Z,99328.91
2022-10-02T18:45:20.462Z,99327.25
2022-10-02T18:47:54.161Z,99332.56
2022-10-02T18:50:39.657Z,99338.41
2022-10-02T18:53:17.895Z,99337.56
2022-10-02T18:56:03.255Z,99337.00
2022-10-02T18:58:42.752Z,99328.22
2022-10-02T19:01:23.181Z,99342.00
2022-10-02T19:03:49.565Z,99342.84
2022-10-02T19:06:19.554Z,99346.66
2022-10-02T19:08:50.259Z,99351.31
2022-10-02T19:11:18.397Z,99354.00
2022-10-02T19:13:50.168Z,99345.34
2022-10-02T19:16:26.560Z,99358.13
2022-10-02T19:19:15.596Z,99366.97
2022-10-02T19:21:42.059Z,99366.25
2022-10-02T19:24:15.479Z,99372.34
2022-10-02T19:26:44.499Z,99375.97
2022-10-02T19:29:25.782Z,99372.59
2022-10-02T19:31:53.033Z,99378.75
2022-10-02T19:34:24.493Z,99387.91
2022-10-02T19:36:53.122Z,99387.19
2022-10-02T19:39:22.484Z,99390.03
2022-10-02T19:41:53.255Z,99385.63
2022-10-02T19:44:40.337Z,99390.03
2022-10-02T19:47:29.461Z,99386.69
2022-10-02T19:49:58.298Z,99391.00
2022-10-02T19:52:30.334Z,99398.34
2022-10-02T19:54:58.033Z,99398.78
2022-10-02T19:57:29.054Z,99398.84
2022-10-02T19:59:55.449Z,99391.72
2022-10-02T20:02:24.848Z,99402.47
2022-10-02T20:04:52.522Z,99405.34
2022-10-02T20:07:20.736Z,99407.13
2022-10-02T20:09:51.159Z,99416.22
2022-10-02T20:12:26.723Z,99406.47
2022-10-02T20:15:05.335Z,99413.81
2022-10-02T20:17:32.429Z,99413.09
2022-10-02T20:20:07.869Z,99423.63
2022-10-02T20:22:40.272Z,99419.41
2022-10-02T20:25:16.340Z,99424.94
2022-10-02T20:27:45.638Z,99432.06
2022-10-02T20:30:13.733Z,99437.34
2022-10-02T20:32:43.783Z,99432.34
2022-10-02T20:35:12.524Z,99443.97
2022-10-02T20:37:39.469Z,99434.16
2022-10-02T20:40:15.781Z,99444.13
2022-10-02T20:42:58.295Z,99442.56
2022-10-02T20:45:29.367Z,99440.69
2022-10-02T20:48:19.157Z,99452.31
2022-10-02T20:51:08.669Z,99459.56
2022-10-02T20:53:35.023Z,99454.78
2022-10-02T20:56:06.152Z,99457.59
2022-10-02T20:58:51.238Z,99469.38
2022-10-02T21:01:18.469Z,99467.84
2022-10-02T21:06:49.840Z,99479.16
2022-10-02T21:09:35.003Z,99484.47
2022-10-02T21:12:07.110Z,99480.72
2022-10-02T21:14:45.148Z,99480.72
2022-10-02T21:17:30.667Z,99495.75
2022-10-02T21:20:22.810Z,99487.97
2022-10-02T21:22:57.958Z,99492.25
2022-10-02T21:25:40.467Z,99497.56
2022-10-02T21:30:46.846Z,99502.13
2022-10-02T21:33:21.994Z,99501.97
2022-10-02T21:36:05.604Z,99506.41
2022-10-02T21:38:51.067Z,99515.69
2022-10-02T21:41:19.687Z,99520.75
2022-10-02T21:44:06.351Z,99514.56
2022-10-02T21:46:35.937Z,99516.22
2022-10-02T21:49:28.503Z,99518.09
2022-10-02T21:52:18.605Z,99519.94
2022-10-02T21:54:51.027Z,99522.63
2022-10-02T21:57:17.424Z,99531.41
2022-10-02T21:59:46.853Z,99524.22
2022-10-02T22:02:40.696Z,99529.47
2022-10-02T22:05:19.387Z,99525.88
2022-10-02T22:07:51.822Z,99531.13
2022-10-02T22:10:25.551Z,99528.56
2022-10-02T22:13:06.923Z,99534.09
2022-10-02T22:15:39.529Z,99530.47
2022-10-02T22:18:11.659Z,99535.94
2022-10-02T22:20:50.123Z,99541.50
2022-10-02T22:23:19.580Z,99535.47
2022-10-02T22:25:46.062Z,99536.47
2022-10-02T22:28:12.582Z,99531.78
2022-10-02T22:30:42.111Z,99532.50
2022-10-02T22:33:23.525Z,99539.59
2022-10-02T22:35:53.006Z,99546.81
2022-10-02T22:38:19.420Z,99546.69
2022-10-02T22:40:52.334Z,99543.38
2022-10-02T22:43:22.540Z,99549.63
2022-10-02T22:45:52.641Z,99547.66
2022-10-02T22:48:43.143Z,99555.94
2022-10-02T22:51:19.255Z,99553.47
2022-10-02T22:53:48.763Z,99545.69
2022-10-02T22:56:27.512Z,99543.34
2022-10-02T22:58:57.978Z,99552.72
2022-10-02T23:01:28.691Z,99550.78
2022-10-02T23:04:10.569Z,99560.06
2022-10-02T23:06:43.210Z,99560.16
2022-10-02T23:09:17.821Z,99561.28
2022-10-02T23:11:48.721Z,99555.97
2022-10-02T23:14:27.363Z,99556.25
2022-10-02T23:17:04.782Z,99562.63
2022-10-02T23:19:34.300Z,99559.25
2022-10-02T23:22:06.479Z,99564.72
2022-10-02T23:24:32.885Z,99566.09
2022-10-02T23:27:02.322Z,99571.59
2022-10-02T23:29:40.964Z,99566.16
2022-10-02T23:32:17.438Z,99571.59
2022-10-02T23:34:49.033Z,99569.91
2022-10-02T23:37:15.488Z,99576.88
2022-10-02T23:40:03.065Z,99577.72
2022-10-02T23:42:35.516Z,99574.38
2022-10-02T23:45:08.438Z,99575.13
2022-10-02T23:47:54.782Z,99584.25
2022-10-02T23:50:28.925Z,99578.69
2022-10-02T23:52:55.318Z,99586.69
2022-10-02T23:55:36.880Z,99584.69
2022-10-02T23:58:18.389Z,99583.63
